sensor_id;sensor_type;location;lat;lon;timestamp;pressure;altitude;pressure_sealevel;temperature;humidity
25664;BME280;13522;50.018;20.014;2023-04-03T00:00:47;99159.64;;;2.71;100.00
25664;BME280;13522;50.018;20.014;2023-04-03T00:04:00;99164.13;;;2.69;100.00
25664;BME280;13522;50.018;20.014;2023-04-03T00:07:12;99160.64;;;2.68;100.00
25664;BME280;13522;50.018;20.014;2023-04-03T00:10:25;99158.54;;;2.75;100.00
25664;BME280;13522;50.018;20.014;2023-04-03T00:13:38;99157.27;;;2.50;100.00
25664;BME280;13522;50.018;20.014;2023-04-03T00:16:50;99152.59;;;2.40;100.00
25664;BME280;13522;50.018;20.014;2023-04-03T00:20:04;99168.08;;;2.44;100.00
25664;BME280;13522;50.018;20.014;2023-04-03T00:23:18;99144.13;;;2.19;100.00
25664;BME280;13522;50.018;20.014;2023-04-03T00:26:30;99163.34;;;2.35;100.00
25664;BME280;13522;50.018;20.014;2023-04-03T00:29:44;99166.02;;;2.34;100.00
25664;BME280;13522;50.018;20.014;2023-04-03T00:32:57;99163.67;;;2.29;100.00
25664;BME280;13522;50.018;20.014;2023-04-03T00:36:12;99176.33;;;2.21;100.00
25664;BME280;13522;50.018;20.014;2023-04-03T00:39:25;99172.33;;;2.14;100.00
25664;BME280;13522;50.018;20.014;2023-04-03T00:42:39;99182.98;;;2.11;100.00
25664;BME280;13522;50.018;20.014;2023-04-03T00:45:54;99178.66;;;2.10;100.00
25664;BME280;13522;50.018;20.014;2023-04-03T00:49:07;99187.59;;;2.06;100.00
25664;BME280;13522;50.018;20.014;2023-04-03T00:52:23;99186.37;;;2.13;100.00
25664;BME280;13522;50.018;20.014;2023-04-03T00:55:39;99186.06;;;2.02;100.00
25664;BME280;13522;50.018;20.014;2023-04-03T00:58:56;99176.84;;;1.95;100.00
25664;BME280;13522;50.018;20.014;2023-04-03T01:02:12;99195.22;;;2.11;100.00
25664;BME280;13522;50.018;20.014;2023-04-03T01:05:25;99198.61;;;2.13;100.00
25664;BME280;13522;50.018;20.014;2023-04-03T01:08:38;99200.19;;;2.00;100.00
25664;BME280;13522;50.018;20.014;2023-04-03T01:11:53;99191.79;;;1.93;100.00
25664;BME280;13522;50.018;20.014;2023-04-03T01:15:10;99192.42;;;1.81;100.00
25664;BME280;13522;50.018;20.014;2023-04-03T01:18:26;99184.73;;;1.78;100.00
25664;BME280;13522;50.018;20.014;2023-04-03T01:21:57;99209.53;;;1.88;100.00
25664;BME280;13522;50.018;20.014;2023-04-03T01:25:19;99212.51;;;1.81;100.00
25664;BME280;13522;50.018;20.014;2023-04-03T01:28:34;99210.35;;;1.89;100.00
25664;BME280;13522;50.018;20.014;2023-04-03T01:31:51;99200.91;;;1.86;100.00
25664;BME280;13522;50.018;20.014;2023-04-03T01:35:06;99207.41;;;1.95;100.00
25664;BME280;13522;50.018;20.014;2023-04-03T01:38:19;99215.19;;;1.96;100.00
25664;BME280;13522;50.018;20.014;2023-04-03T01:41:33;99221.37;;;1.95;100.00
25664;BME280;13522;50.018;20.014;2023-04-03T01:44:47;99219.52;;;1.97;100.00
25664;BME280;13522;50.018;20.014;2023-04-03T01:48:00;99226.12;;;2.04;100.00
25664;BME280;13522;50.018;20.014;2023-04-03T01:51:14;99222.59;;;2.05;100.00
25664;BME280;13522;50.018;20.014;2023-04-03T01:54:27;99232.61;;;1.97;100.00
25664;BME280;13522;50.018;20.014;2023-04-03T01:57:40;99224.38;;;1.88;100.00
25664;BME280;13522;50.018;20.014;2023-04-03T02:00:53;99227.69;;;1.91;100.00
25664;BME280;13522;50.018;20.014;2023-04-03T02:04:07;99224.06;;;1.76;100.00
25664;BME280;13522;50.018;20.014;2023-04-03T02:07:21;99223.69;;;1.67;100.00
25664;BME280;13522;50.018;20.014;2023-04-03T02:10:33;99225.09;;;1.74;100.00
25664;BME280;13522;50.018;20.014;2023-04-03T02:13:46;99232.77;;;1.77;100.00
25664;BME280;13522;50.018;20.014;2023-04-03T02:16:59;99203.05;;;1.61;100.00
25664;BME280;13522;50.018;20.014;2023-04-03T02:20:14;99228.16;;;1.82;100.00
25664;BME280;13522;50.018;20.014;2023-04-03T02:23:28;99235.47;;;1.75;100.00
25664;BME280;13522;50.018;20.014;2023-04-03T02:26:42;99236.33;;;1.76;100.00
25664;BME280;13522;50.018;20.014;2023-04-03T02:29:55;99221.30;;;1.80;100.00
25664;BME280;13522;50.018;20.014;2023-04-03T02:33:08;99234.63;;;1.92;100.00
25664;BME280;13522;50.018;20.014;2023-04-03T02:36:22;99221.68;;;1.89;100.00
25664;BME280;13522;50.018;20.014;2023-04-03T02:39:37;99238.39;;;2.04;100.00
25664;BME280;13522;50.018;20.014;2023-04-03T02:42:50;99241.63;;;1.92;100.00
25664;BME280;13522;50.018;20.014;2023-04-03T02:46:03;99241.72;;;1.90;100.00
25664;BME280;13522;50.018;20.014;2023-04-03T02:49:16;99243.02;;;1.82;100.00
25664;BME280;13522;50.018;20.014;2023-04-03T02:52:29;99245.56;;;1.66;100.00
25664;BME280;13522;50.018;20.014;2023-04-03T02:55:42;99249.25;;;1.79;100.00
25664;BME280;13522;50.018;20.014;2023-04-03T02:58:56;99252.04;;;1.76;100.00
25664;BME280;13522;50.018;20.014;2023-04-03T03:02:09;99258.73;;;1.82;100.00
25664;BME280;13522;50.018;20.014;2023-04-03T03:05:22;99259.56;;;1.65;100.00
25664;BME280;13522;50.018;20.014;2023-04-03T03:08:35;99256.17;;;1.63;100.00
25664;BME280;13522;50.018;20.014;2023-04-03T03:11:48;99259.94;;;1.57;100.00
25664;BME280;13522;50.018;20.014;2023-04-03T03:15:00;99260.03;;;1.56;100.00
25664;BME280;13522;50.018;20.014;2023-04-03T03:18:13;99259.94;;;1.57;100.00
25664;BME280;13522;50.018;20.014;2023-04-03T03:21:27;99255.56;;;1.58;100.00
25664;BME280;13522;50.018;20.014;2023-04-03T03:24:40;99254.79;;;1.56;100.00
25664;BME280;13522;50.018;20.014;2023-04-03T03:27:53;99261.87;;;1.54;100.00
25664;BME280;13522;50.018;20.014;2023-04-03T03:31:07;99261.57;;;1.60;100.00
25664;BME280;13522;50.018;20.014;2023-04-03T03:34:21;99268.95;;;1.52;100.00
25664;BME280;13522;50.018;20.014;2023-04-03T03:37:34;99269.94;;;1.49;100.00
25664;BME280;13522;50.018;20.014;2023-04-03T03:40:48;99242.81;;;1.33;100.00
25664;BME280;13522;50.018;20.014;2023-04-03T03:44:01;99271.30;;;1.39;100.00
25664;BME280;13522;50.018;20.014;2023-04-03T03:47:15;99276.45;;;1.41;100.00
25664;BME280;13522;50.018;20.014;2023-04-03T03:50:28;99269.54;;;1.40;100.00
25664;BME280;13522;50.018;20.014;2023-04-03T03:53:41;99268.31;;;1.47;100.00
25664;BME280;13522;50.018;20.014;2023-04-03T03:56:55;99284.48;;;1.55;100.00
25664;BME280;13522;50.018;20.014;2023-04-03T04:00:10;99279.25;;;1.55;100.00
25664;BME280;13522;50.018;20.014;2023-04-03T04:03:26;99286.12;;;1.57;100.00
25664;BME280;13522;50.018;20.014;2023-04-03T04:06:38;99293.57;;;1.48;100.00
25664;BME280;13522;50.018;20.014;2023-04-03T04:09:51;99291.86;;;1.47;100.00
25664;BME280;13522;50.018;20.014;2023-04-03T04:13:04;99301.07;;;1.37;100.00
25664;BME280;13522;50.018;20.014;2023-04-03T04:16:17;99302.62;;;1.41;100.00
25664;BME280;13522;50.018;20.014;2023-04-03T04:19:31;99294.77;;;1.41;100.00
25664;BME280;13522;50.018;20.014;2023-04-03T04:22:44;99302.20;;;1.50;100.00
25664;BME280;13522;50.018;20.014;2023-04-03T04:25:57;99294.34;;;1.50;100.00
25664;BME280;13522;50.018;20.014;2023-04-03T04:29:12;99292.02;;;1.44;100.00
25664;BME280;13522;50.018;20.014;2023-04-03T04:32:26;99298.80;;;1.48;100.00
25664;BME280;13522;50.018;20.014;2023-04-03T04:35:40;99307.08;;;1.39;100.00
25664;BME280;13522;50.018;20.014;2023-04-03T04:38:55;99286.56;;;1.13;100.00
25664;BME280;13522;50.018;20.014;2023-04-03T04:42:08;99319.05;;;1.26;100.00
25664;BME280;13522;50.018;20.014;2023-04-03T04:45:23;99323.30;;;1.28;100.00
25664;BME280;13522;50.018;20.014;2023-04-03T04:48:37;99321.47;;;1.30;100.00
25664;BME280;13522;50.018;20.014;2023-04-03T04:51:52;99319.75;;;1.29;100.00
25664;BME280;13522;50.018;20.014;2023-04-03T04:55:08;99320.89;;;1.24;100.00
25664;BME280;13522;50.018;20.014;2023-04-03T04:58:22;99281.12;;;0.99;100.00
25664;BME280;13522;50.018;20.014;2023-04-03T05:01:35;99331.23;;;1.27;100.00
25664;BME280;13522;50.018;20.014;2023-04-03T05:04:50;99341.13;;;1.20;100.00
25664;BME280;13522;50.018;20.014;2023-04-03T05:08:05;99340.92;;;1.25;100.00
25664;BME280;13522;50.018;20.014;2023-04-03T05:11:18;99336.47;;;1.27;100.00
25664;BME280;13522;50.018;20.014;2023-04-03T05:14:31;99337.98;;;1.31;100.00
25664;BME280;13522;50.018;20.014;2023-04-03T05:17:46;99342.81;;;1.40;100.00
25664;BME280;13522;50.018;20.014;2023-04-03T05:20:59;99347.88;;;1.43;100.00
25664;BME280;13522;50.018;20.014;2023-04-03T05:24:11;99358.80;;;1.34;100.00
25664;BME280;13522;50.018;20.014;2023-04-03T05:27:24;99354.34;;;1.36;100.00
25664;BME280;13522;50.018;20.014;2023-04-03T05:30:38;99347.88;;;1.43;100.00
25664;BME280;13522;50.018;20.014;2023-04-03T05:33:51;99336.88;;;1.18;100.00
25664;BME280;13522;50.018;20.014;2023-04-03T05:37:05;99347.98;;;1.23;100.00
25664;BME280;13522;50.018;20.014;2023-04-03T05:40:19;99353.06;;;1.26;100.00
25664;BME280;13522;50.018;20.014;2023-04-03T05:43:33;99362.47;;;1.30;100.00
25664;BME280;13522;50.018;20.014;2023-04-03T05:46:46;99366.02;;;1.29;100.00
25664;BME280;13522;50.018;20.014;2023-04-03T05:49:59;99370.80;;;1.19;100.00
25664;BME280;13522;50.018;20.014;2023-04-03T05:53:16;99342.96;;;1.18;100.00
25664;BME280;13522;50.018;20.014;2023-04-03T05:56:32;99373.51;;;1.36;100.00
25664;BME280;13522;50.018;20.014;2023-04-03T05:59:45;99375.19;;;1.37;100.00
25664;BME280;13522;50.018;20.014;2023-04-03T06:02:58;99381.64;;;1.30;100.00
25664;BME280;13522;50.018;20.014;2023-04-03T06:06:15;99389.84;;;1.23;100.00
25664;BME280;13522;50.018;20.014;2023-04-03T06:09:29;99383.33;;;1.13;100.00
25664;BME280;13522;50.018;20.014;2023-04-03T06:12:43;99383.84;;;1.21;100.00
25664;BME280;13522;50.018;20.014;2023-04-03T06:15:56;99398.13;;;0.94;100.00
25664;BME280;13522;50.018;20.014;2023-04-03T06:19:10;99391.77;;;0.99;100.00
25664;BME280;13522;50.018;20.014;2023-04-03T06:22:25;99379.16;;;1.09;100.00
25664;BME280;13522;50.018;20.014;2023-04-03T06:25:39;99398.75;;;1.19;100.00
25664;BME280;13522;50.018;20.014;2023-04-03T06:28:53;99399.38;;;1.24;100.00
25664;BME280;13522;50.018;20.014;2023-04-03T06:32:07;99397.81;;;1.20;100.00
25664;BME280;13522;50.018;20.014;2023-04-03T06:35:19;99404.95;;;1.35;100.00
25664;BME280;13522;50.018;20.014;2023-04-03T06:38:35;99410.63;;;1.26;100.00
25664;BME280;13522;50.018;20.014;2023-04-03T06:41:48;99412.33;;;1.45;100.00
25664;BME280;13522;50.018;20.014;2023-04-03T06:45:08;99417.35;;;1.50;100.00
25664;BME280;13522;50.018;20.014;2023-04-03T06:48:22;99417.06;;;1.56;100.00
25664;BME280;13522;50.018;20.014;2023-04-03T06:51:35;99417.61;;;1.62;100.00
25664;BME280;13522;50.018;20.014;2023-04-03T06:54:48;99422.09;;;1.42;100.00
25664;BME280;13522;50.018;20.014;2023-04-03T06:58:03;99425.83;;;1.55;100.00
25664;BME280;13522;50.018;20.014;2023-04-03T07:01:17;99423.98;;;1.57;100.00
25664;BME280;13522;50.018;20.014;2023-04-03T07:04:31;99411.47;;;1.45;100.00
25664;BME280;13522;50.018;20.014;2023-04-03T07:07:43;99398.62;;;1.40;100.00
25664;BME280;13522;50.018;20.014;2023-04-03T07:10:56;99428.31;;;1.58;100.00
25664;BME280;13522;50.018;20.014;2023-04-03T07:14:10;99425.70;;;1.58;100.00
25664;BME280;13522;50.018;20.014;2023-04-03T07:17:22;99431.50;;;1.46;100.00
25664;BME280;13522;50.018;20.014;2023-04-03T07:20:36;99432.67;;;1.39;100.00
25664;BME280;13522;50.018;20.014;2023-04-03T07:23:48;99445.28;;;1.49;100.00
25664;BME280;13522;50.018;20.014;2023-04-03T07:27:02;99445.42;;;1.65;100.00
25664;BME280;13522;50.018;20.014;2023-04-03T07:30:15;99454.47;;;1.76;100.00
25664;BME280;13522;50.018;20.014;2023-04-03T07:33:29;99452.30;;;1.86;100.00
25664;BME280;13522;50.018;20.014;2023-04-03T07:36:42;99445.65;;;2.15;100.00
25664;BME280;13522;50.018;20.014;2023-04-03T07:39:55;99449.52;;;2.25;98.10
25664;BME280;13522;50.018;20.014;2023-04-03T07:43:09;99452.09;;;2.60;97.89
25664;BME280;13522;50.018;20.014;2023-04-03T07:46:22;99452.18;;;3.26;96.93
25664;BME280;13522;50.018;20.014;2023-04-03T07:49:35;99454.99;;;3.06;92.62
25664;BME280;13522;50.018;20.014;2023-04-03T07:52:49;99466.80;;;2.97;92.41
25664;BME280;13522;50.018;20.014;2023-04-03T07:56:03;99462.55;;;3.12;90.80
25664;BME280;13522;50.018;20.014;2023-04-03T07:59:16;99467.11;;;3.41;90.03
25664;BME280;13522;50.018;20.014;2023-04-03T08:02:30;99468.20;;;3.37;89.65
25664;BME280;13522;50.018;20.014;2023-04-03T08:05:45;99464.92;;;3.49;89.17
25664;BME280;13522;50.018;20.014;2023-04-03T08:08:59;99455.63;;;3.59;89.71
25664;BME280;13522;50.018;20.014;2023-04-03T08:12:12;99463.53;;;3.26;90.71
25664;BME280;13522;50.018;20.014;2023-04-03T08:15:25;99459.97;;;3.27;92.20
25664;BME280;13522;50.018;20.014;2023-04-03T08:18:38;99471.84;;;2.85;91.90
25664;BME280;13522;50.018;20.014;2023-04-03T08:21:51;99470.19;;;3.16;91.16
25664;BME280;13522;50.018;20.014;2023-04-03T08:25:05;99469.34;;;3.16;92.64
25664;BME280;13522;50.018;20.014;2023-04-03T08:28:19;99468.03;;;3.07;91.26
25664;BME280;13522;50.018;20.014;2023-04-03T08:31:31;99472.91;;;2.63;90.65
25664;BME280;13522;50.018;20.014;2023-04-03T08:34:45;99474.70;;;2.63;91.46
25664;BME280;13522;50.018;20.014;2023-04-03T08:37:58;99478.02;;;2.67;92.30
25664;BME280;13522;50.018;20.014;2023-04-03T08:41:16;99488.32;;;2.35;93.32
25664;BME280;13522;50.018;20.014;2023-04-03T08:44:38;99492.53;;;2.02;94.19
25664;BME280;13522;50.018;20.014;2023-04-03T08:47:57;99501.33;;;2.01;95.54
25664;BME280;13522;50.018;20.014;2023-04-03T08:51:15;99458.92;;;1.93;96.68
25664;BME280;13522;50.018;20.014;2023-04-03T08:54:33;99494.84;;;2.27;95.53
25664;BME280;13522;50.018;20.014;2023-04-03T08:57:49;99497.25;;;2.31;96.87
25664;BME280;13522;50.018;20.014;2023-04-03T09:01:06;99506.48;;;2.21;94.63
25664;BME280;13522;50.018;20.014;2023-04-03T09:04:26;99514.98;;;1.89;94.46
25664;BME280;13522;50.018;20.014;2023-04-03T09:07:43;99507.91;;;1.91;95.26
25664;BME280;13522;50.018;20.014;2023-04-03T09:11:09;99515.05;;;1.69;96.49
25664;BME280;13522;50.018;20.014;2023-04-03T09:14:31;99511.80;;;1.83;94.79
25664;BME280;13522;50.018;20.014;2023-04-03T09:17:53;99525.10;;;1.97;93.55
25664;BME280;13522;50.018;20.014;2023-04-03T09:21:13;99520.36;;;2.05;94.37
25664;BME280;13522;50.018;20.014;2023-04-03T09:24:32;99526.02;;;2.14;95.31
25664;BME280;13522;50.018;20.014;2023-04-03T09:27:45;99535.59;;;2.15;96.75
25664;BME280;13522;50.018;20.014;2023-04-03T09:30:58;99534.52;;;2.01;97.52
25664;BME280;13522;50.018;20.014;2023-04-03T09:34:17;99548.95;;;1.91;100.00
25664;BME280;13522;50.018;20.014;2023-04-03T09:37:38;99561.27;;;1.89;100.00
25664;BME280;13522;50.018;20.014;2023-04-03T09:41:02;99554.75;;;1.78;100.00
25664;BME280;13522;50.018;20.014;2023-04-03T09:44:25;99564.13;;;1.84;100.00
25664;BME280;13522;50.018;20.014;2023-04-03T09:47:38;99560.84;;;1.79;100.00
25664;BME280;13522;50.018;20.014;2023-04-03T09:51:01;99550.14;;;1.65;100.00
25664;BME280;13522;50.018;20.014;2023-04-03T09:54:32;99561.27;;;1.70;100.00
25664;BME280;13522;50.018;20.014;2023-04-03T09:57:48;99571.55;;;1.93;100.00
25664;BME280;13522;50.018;20.014;2023-04-03T10:01:03;99574.88;;;1.97;100.00
25664;BME280;13522;50.018;20.014;2023-04-03T10:04:18;99568.30;;;2.07;100.00
25664;BME280;13522;50.018;20.014;2023-04-03T10:07:36;99566.81;;;2.01;99.37
25664;BME280;13522;50.018;20.014;2023-04-03T10:14:36;99567.52;;;1.86;96.55
25664;BME280;13522;50.018;20.014;2023-04-03T10:17:56;99573.73;;;2.02;98.89
25664;BME280;13522;50.018;20.014;2023-04-03T10:21:17;99577.29;;;2.01;97.01
25664;BME280;13522;50.018;20.014;2023-04-03T10:24:40;99545.00;;;2.01;95.51
25664;BME280;13522;50.018;20.014;2023-04-03T10:27:58;99578.00;;;2.23;94.17
25664;BME280;13522;50.018;20.014;2023-04-03T10:31:15;99576.41;;;2.38;93.50
25664;BME280;13522;50.018;20.014;2023-04-03T10:34:34;99573.75;;;2.39;92.37
25664;BME280;13522;50.018;20.014;2023-04-03T10:37:58;99573.70;;;2.58;91.56
25664;BME280;13522;50.018;20.014;2023-04-03T10:41:19;99576.42;;;2.74;91.05
25664;BME280;13522;50.018;20.014;2023-04-03T10:44:40;99574.28;;;2.82;91.79
25664;BME280;13522;50.018;20.014;2023-04-03T10:48:01;99571.42;;;2.69;89.66
25664;BME280;13522;50.018;20.014;2023-04-03T10:51:25;99571.48;;;2.68;92.34
25664;BME280;13522;50.018;20.014;2023-04-03T10:54:43;99568.98;;;2.83;91.60
25664;BME280;13522;50.018;20.014;2023-04-03T10:57:58;99563.95;;;2.96;90.32
25664;BME280;13522;50.018;20.014;2023-04-03T11:01:14;99570.97;;;2.78;90.72
25664;BME280;13522;50.018;20.014;2023-04-03T11:04:34;99562.48;;;2.73;89.36
25664;BME280;13522;50.018;20.014;2023-04-03T11:07:50;99579.42;;;2.66;89.10
25664;BME280;13522;50.018;20.014;2023-04-03T11:11:06;99581.45;;;2.78;90.04
25664;BME280;13522;50.018;20.014;2023-04-03T11:14:26;99573.53;;;3.14;89.95
25664;BME280;13522;50.018;20.014;2023-04-03T11:17:48;99571.35;;;3.56;88.89
25664;BME280;13522;50.018;20.014;2023-04-03T11:21:06;99578.41;;;3.71;88.69
25664;BME280;13522;50.018;20.014;2023-04-03T11:24:25;99557.70;;;3.82;84.51
25664;BME280;13522;50.018;20.014;2023-04-03T11:27:43;99560.78;;;4.53;78.98
25664;BME280;13522;50.018;20.014;2023-04-03T11:31:01;99537.34;;;5.09;79.33
25664;BME280;13522;50.018;20.014;2023-04-03T11:34:29;99558.19;;;6.26;76.33
25664;BME280;13522;50.018;20.014;2023-04-03T11:37:47;99559.48;;;5.49;74.41
25664;BME280;13522;50.018;20.014;2023-04-03T11:41:01;99556.67;;;4.78;76.46
25664;BME280;13522;50.018;20.014;2023-04-03T11:44:37;99563.76;;;4.15;79.49
25664;BME280;13522;50.018;20.014;2023-04-03T11:47:51;99550.95;;;4.25;81.41
25664;BME280;13522;50.018;20.014;2023-04-03T11:54:52;99541.15;;;5.03;76.82
25664;BME280;13522;50.018;20.014;2023-04-03T11:58:13;99543.16;;;5.14;73.89
25664;BME280;13522;50.018;20.014;2023-04-03T12:01:44;99548.95;;;5.49;74.80
25664;BME280;13522;50.018;20.014;2023-04-03T12:08:47;99550.70;;;4.90;71.18
25664;BME280;13522;50.018;20.014;2023-04-03T12:15:52;99535.02;;;4.89;72.92
25664;BME280;13522;50.018;20.014;2023-04-03T12:26:30;99552.89;;;4.53;73.79
25664;BME280;13522;50.018;20.014;2023-04-03T12:29:50;99548.39;;;4.55;72.94
25664;BME280;13522;50.018;20.014;2023-04-03T12:33:20;99554.44;;;4.25;69.77
25664;BME280;13522;50.018;20.014;2023-04-03T12:36:45;99547.31;;;4.27;68.10
25664;BME280;13522;50.018;20.014;2023-04-03T12:40:08;99550.27;;;4.53;70.41
25664;BME280;13522;50.018;20.014;2023-04-03T12:43:35;99549.00;;;4.89;69.05
25664;BME280;13522;50.018;20.014;2023-04-03T12:46:54;99544.88;;;5.29;67.12
25664;BME280;13522;50.018;20.014;2023-04-03T12:50:21;99541.48;;;5.27;66.28
25664;BME280;13522;50.018;20.014;2023-04-03T12:53:37;99536.09;;;5.58;66.46
25664;BME280;13522;50.018;20.014;2023-04-03T12:56:50;99544.83;;;5.59;63.50
25664;BME280;13522;50.018;20.014;2023-04-03T13:03:33;99549.28;;;5.72;63.26
25664;BME280;13522;50.018;20.014;2023-04-03T13:06:46;99552.98;;;5.26;62.55
25664;BME280;13522;50.018;20.014;2023-04-03T13:10:01;99546.16;;;5.08;63.86
25664;BME280;13522;50.018;20.014;2023-04-03T13:13:16;99547.88;;;4.93;63.93
25664;BME280;13522;50.018;20.014;2023-04-03T13:16:29;99549.80;;;4.76;64.06
25664;BME280;13522;50.018;20.014;2023-04-03T13:19:45;99552.68;;;4.87;66.42
25664;BME280;13522;50.018;20.014;2023-04-03T13:23:01;99538.12;;;4.95;66.40
25664;BME280;13522;50.018;20.014;2023-04-03T13:26:17;99540.27;;;5.18;63.84
25664;BME280;13522;50.018;20.014;2023-04-03T13:29:35;99537.17;;;5.26;63.61
25664;BME280;13522;50.018;20.014;2023-04-03T13:32:48;99536.61;;;5.35;66.92
25664;BME280;13522;50.018;20.014;2023-04-03T13:36:05;99540.95;;;5.36;65.67
25664;BME280;13522;50.018;20.014;2023-04-03T13:39:25;99544.25;;;5.40;66.20
25664;BME280;13522;50.018;20.014;2023-04-03T13:42:41;99538.98;;;5.40;63.25
25664;BME280;13522;50.018;20.014;2023-04-03T13:46:00;99536.52;;;5.22;61.97
25664;BME280;13522;50.018;20.014;2023-04-03T13:49:27;99536.84;;;5.02;61.52
25664;BME280;13522;50.018;20.014;2023-04-03T13:52:46;99536.78;;;5.18;62.06
25664;BME280;13522;50.018;20.014;2023-04-03T13:56:09;99537.38;;;5.37;65.23
25664;BME280;13522;50.018;20.014;2023-04-03T13:59:29;99535.86;;;5.33;63.26
25664;BME280;13522;50.018;20.014;2023-04-03T14:02:43;99530.03;;;5.28;65.08
25664;BME280;13522;50.018;20.014;2023-04-03T14:05:59;99534.17;;;5.32;64.85
25664;BME280;13522;50.018;20.014;2023-04-03T14:09:12;99527.92;;;5.19;66.21
25664;BME280;13522;50.018;20.014;2023-04-03T14:12:29;99537.05;;;5.13;65.69
25664;BME280;13522;50.018;20.014;2023-04-03T14:15:46;99536.94;;;5.01;65.83
25664;BME280;13522;50.018;20.014;2023-04-03T14:19:01;99538.97;;;4.96;67.82
25664;BME280;13522;50.018;20.014;2023-04-03T14:22:18;99532.38;;;4.89;66.24
25664;BME280;13522;50.018;20.014;2023-04-03T14:25:32;99536.08;;;5.00;67.01
25664;BME280;13522;50.018;20.014;2023-04-03T14:28:46;99528.80;;;4.90;67.35
25664;BME280;13522;50.018;20.014;2023-04-03T14:32:00;99526.57;;;4.98;65.41
25664;BME280;13522;50.018;20.014;2023-04-03T14:35:15;99532.03;;;4.95;67.11
25664;BME280;13522;50.018;20.014;2023-04-03T14:38:30;99517.52;;;4.88;66.65
25664;BME280;13522;50.018;20.014;2023-04-03T14:41:43;99526.47;;;4.99;67.67
25664;BME280;13522;50.018;20.014;2023-04-03T14:44:56;99516.44;;;4.76;67.21
25664;BME280;13522;50.018;20.014;2023-04-03T14:48:11;99515.73;;;4.88;67.05
25664;BME280;13522;50.018;20.014;2023-04-03T14:51:28;99514.16;;;5.00;67.30
25664;BME280;13522;50.018;20.014;2023-04-03T14:54:40;99521.80;;;5.04;68.05
25664;BME280;13522;50.018;20.014;2023-04-03T14:57:53;99521.50;;;4.95;68.48
25664;BME280;13522;50.018;20.014;2023-04-03T15:01:08;99522.62;;;4.91;67.32
25664;BME280;13522;50.018;20.014;2023-04-03T15:04:22;99520.69;;;4.79;66.68
25664;BME280;13522;50.018;20.014;2023-04-03T15:07:37;99515.59;;;4.76;67.37
25664;BME280;13522;50.018;20.014;2023-04-03T15:10:52;99522.41;;;4.64;65.34
25664;BME280;13522;50.018;20.014;2023-04-03T15:14:05;99520.03;;;4.60;66.39
25664;BME280;13522;50.018;20.014;2023-04-03T15:17:24;99527.03;;;4.45;65.88
25664;BME280;13522;50.018;20.014;2023-04-03T15:20:36;99524.84;;;4.37;65.45
25664;BME280;13522;50.018;20.014;2023-04-03T15:23:49;99504.63;;;4.38;65.42
25664;BME280;13522;50.018;20.014;2023-04-03T15:27:03;99518.72;;;4.37;65.84
25664;BME280;13522;50.018;20.014;2023-04-03T15:30:17;99517.96;;;4.35;66.79
25664;BME280;13522;50.018;20.014;2023-04-03T15:33:31;99520.25;;;4.41;66.79
25664;BME280;13522;50.018;20.014;2023-04-03T15:36:44;99516.19;;;4.35;64.73
25664;BME280;13522;50.018;20.014;2023-04-03T15:39:59;99515.30;;;4.51;64.21
25664;BME280;13522;50.018;20.014;2023-04-03T15:43:11;99510.05;;;4.51;64.35
25664;BME280;13522;50.018;20.014;2023-04-03T15:46:24;99511.63;;;4.69;65.38
25664;BME280;13522;50.018;20.014;2023-04-03T15:49:38;99511.09;;;4.78;64.11
25664;BME280;13522;50.018;20.014;2023-04-03T15:52:51;99498.02;;;4.76;64.56
25664;BME280;13522;50.018;20.014;2023-04-03T15:56:05;99514.42;;;4.66;65.23
25664;BME280;13522;50.018;20.014;2023-04-03T15:59:18;99515.88;;;4.56;65.80
25664;BME280;13522;50.018;20.014;2023-04-03T16:02:31;99517.71;;;4.39;62.76
25664;BME280;13522;50.018;20.014;2023-04-03T16:05:45;99515.00;;;4.25;60.11
25664;BME280;13522;50.018;20.014;2023-04-03T16:08:58;99521.42;;;4.20;61.35
25664;BME280;13522;50.018;20.014;2023-04-03T16:12:11;99513.63;;;4.18;61.81
25664;BME280;13522;50.018;20.014;2023-04-03T16:15:24;99507.70;;;4.15;61.25
25664;BME280;13522;50.018;20.014;2023-04-03T16:18:38;99508.13;;;4.07;61.67
25664;BME280;13522;50.018;20.014;2023-04-03T16:21:54;99516.88;;;4.08;62.28
25664;BME280;13522;50.018;20.014;2023-04-03T16:25:09;99519.06;;;4.00;62.46
25664;BME280;13522;50.018;20.014;2023-04-03T16:28:22;99513.44;;;3.90;62.41
25664;BME280;13522;50.018;20.014;2023-04-03T16:31:35;99522.09;;;3.92;62.34
25664;BME280;13522;50.018;20.014;2023-04-03T16:34:48;99523.28;;;3.87;62.65
25664;BME280;13522;50.018;20.014;2023-04-03T16:38:01;99515.48;;;3.85;63.01
25664;BME280;13522;50.018;20.014;2023-04-03T16:41:13;99515.99;;;3.76;63.22
25664;BME280;13522;50.018;20.014;2023-04-03T16:44:26;99493.75;;;3.50;64.11
25664;BME280;13522;50.018;20.014;2023-04-03T16:47:39;99523.58;;;3.65;64.56
25664;BME280;13522;50.018;20.014;2023-04-03T16:50:52;99518.83;;;3.56;66.44
25664;BME280;13522;50.018;20.014;2023-04-03T16:54:05;99520.01;;;3.50;64.61
25664;BME280;13522;50.018;20.014;2023-04-03T16:57:19;99529.66;;;3.50;65.21
25664;BME280;13522;50.018;20.014;2023-04-03T17:00:32;99529.80;;;3.47;64.72
25664;BME280;13522;50.018;20.014;2023-04-03T17:03:46;99515.54;;;3.35;64.84
25664;BME280;13522;50.018;20.014;2023-04-03T17:06:59;99535.23;;;3.44;64.82
25664;BME280;13522;50.018;20.014;2023-04-03T17:10:12;99538.63;;;3.46;65.04
25664;BME280;13522;50.018;20.014;2023-04-03T17:13:26;99545.73;;;3.44;66.08
25664;BME280;13522;50.018;20.014;2023-04-03T17:16:40;99546.64;;;3.43;66.98
25664;BME280;13522;50.018;20.014;2023-04-03T17:19:55;99537.22;;;3.39;66.46
25664;BME280;13522;50.018;20.014;2023-04-03T17:23:08;99548.98;;;3.32;66.42
25664;BME280;13522;50.018;20.014;2023-04-03T17:26:21;99549.89;;;3.31;68.35
25664;BME280;13522;50.018;20.014;2023-04-03T17:29:34;99554.86;;;3.20;67.88
25664;BME280;13522;50.018;20.014;2023-04-03T17:32:47;99555.94;;;3.16;67.67